Fruitvale, Colorado
Current Conditions -  °F | °C
As of 1:53 PM on Saturday 22 Nov 2014 (Local Time) from KGJT Reporting Station
Broken Clouds Broken Clouds  
Wind Chill: 33°   Ceiling: 11000
Heat Index: 40°   Visibility: 10mi
Dew Point: 21°   Wind: 12mph
Humidity: 47%   Direction: 300°WNW
Pressure: 29.88"   Gusts: NA
Location:  39.0804°N, 108.488°W
Report Text: KGJT 222053Z 30010KT 10SM BKN110 04/M06 A2988 RMK AO2 SLP121 T00441061 56027
Loading
Personal Weather Stations






























Interactive Weather Map New forecast layout! Learn more

10-Day Weather Forecast

Advertisements
Track Severe Weather on mobile